Toltec, Arizona
Current Conditions -  °F | °C
As of 5:15 AM on Tuesday 21 Oct 2014 (Local Time) from KCGZ Reporting Station
Clear Clear  
Wind Chill: 66°   Ceiling: Unl
Heat Index: 66°   Visibility: 10mi
Dew Point: 50°   Wind: 0mph
Humidity: 56%   Direction: NA
Pressure: 29.87"   Gusts: NA
Location:  32.6521°N, 111.606°W
Report Text: KCGZ 211215Z AUTO 00000KT 10SM CLR 19/10 A2987 RMK AO1
Loading
Personal Weather Stations






























Interactive Weather Map
Tropical Storm Tracking
New forecast layout! Learn more

10-Day Weather Forecast

Advertisements
Track Severe Weather on mobile